MTH weather

The Florida Keys Marathon Airport
Marathon, Florida, United States

Public forecast

Using degrees Fahrenheit for public forecast. Weather courtesy of forecast.io.

METAR (pilot weather report)

Retrieved 2019/07/17 10:53 UTC (1 hour ago):

KMTH 171053Z AUTO 11005KT 10SM CLR 28/24 A3007 RMK AO2 SLP182 T02830239

TAF (pilot weather forecast)

Retrieved 2019/07/17 06:48 UTC (5 hours ago):

TAF KMTH 170545Z 1706/1806 10008KT P6SM FEW025